Terminal Aerodrome Forecast
Issued by NWS

Current Version | Previous Version | Text Only | Print | Product List | Glossary Off
Versions: 1 2 3 4 5 6 7 8 9 10 11 12 13 14 15 16 17 18 19 20

000
FTUS41 KILN 041700 RRA
TAFLUK
TAF
KLUK 041743Z 0418/0518 22014KT P6SM SCT060 BKN120
     FM042300 23010KT 5SM -SHRA VCTS BKN050CB OVC150
     FM050200 21003KT P6SM SCT050 BKN120
     FM051500 22008KT P6SM SCT050=

USA.gov is the U.S. government's official web portal to all federal, state and local government web resources and services.